createdAt,value
2023-05-20T00:00:36.677Z,100675.09
2023-05-20T00:01:43.879Z,100671.37
2023-05-20T00:02:46.333Z,100667.70
2023-05-20T00:03:49.575Z,100675.23
2023-05-20T00:04:52.280Z,100675.41
2023-05-20T00:05:54.767Z,100667.45
2023-05-20T00:06:57.568Z,100671.99
2023-05-20T00:09:10.066Z,100664.63
2023-05-20T00:10:13.026Z,100669.86
2023-05-20T00:11:15.268Z,100676.24
2023-05-20T00:12:17.621Z,100663.63
2023-05-20T00:13:19.936Z,100660.77
2023-05-20T00:14:22.123Z,100660.31
2023-05-20T00:15:25.566Z,100662.84
2023-05-20T00:16:30.774Z,100661.86
2023-05-20T00:17:36.500Z,100655.30
2023-05-20T00:18:42.163Z,100657.83
2023-05-20T00:19:46.793Z,100651.89
2023-05-20T00:20:59.728Z,100666.53
2023-05-20T00:22:03.546Z,100649.84
2023-05-20T00:23:05.911Z,100659.39
2023-05-20T00:24:09.784Z,100657.27
2023-05-20T00:25:12.049Z,100655.88
2023-05-20T00:26:15.996Z,100658.56
2023-05-20T00:27:20.141Z,100659.58
2023-05-20T00:28:22.372Z,100659.72
2023-05-20T00:30:42.783Z,100653.84
2023-05-20T00:31:45.062Z,100646.11
2023-05-20T00:32:47.379Z,100652.19
2023-05-20T00:33:50.041Z,100654.88
2023-05-20T00:34:56.643Z,100651.20
2023-05-20T00:35:58.868Z,100657.11
2023-05-20T00:37:01.510Z,100650.73
2023-05-20T00:38:04.275Z,100654.72
2023-05-20T00:40:16.346Z,100649.60
2023-05-20T00:41:18.705Z,100661.56
2023-05-20T00:42:24.571Z,100658.87
2023-05-20T00:43:27.452Z,100657.87
2023-05-20T00:44:29.771Z,100659.89
2023-05-20T00:45:32.464Z,100661.56
2023-05-20T00:46:35.252Z,100661.56
2023-05-20T00:47:38.485Z,100658.87
2023-05-20T00:48:44.173Z,100663.13
2023-05-20T00:49:50.442Z,100661.97
2023-05-20T00:52:09.060Z,100664.61
2023-05-20T00:53:12.524Z,100663.95
2023-05-20T00:54:14.913Z,100656.59
2023-05-20T00:55:17.608Z,100659.97
2023-05-20T00:56:21.680Z,100658.95
2023-05-20T00:57:27.989Z,100657.11
2023-05-20T00:58:31.277Z,100659.66
2023-05-20T00:59:35.821Z,100659.39
2023-05-20T01:00:38.733Z,100651.99
2023-05-20T01:01:41.741Z,100653.70
2023-05-20T01:02:44.417Z,100658.06
2023-05-20T01:03:47.286Z,100656.39
2023-05-20T01:04:49.767Z,100658.54
2023-05-20T01:05:52.308Z,100664.50
2023-05-20T01:06:54.819Z,100663.27
2023-05-20T01:07:57.364Z,100661.05
2023-05-20T01:08:59.818Z,100657.80
2023-05-20T01:10:02.278Z,100657.80
2023-05-20T01:11:30.801Z,100655.11
2023-05-20T01:12:52.293Z,100657.33
2023-05-20T01:13:57.845Z,100661.42
2023-05-20T01:15:11.374Z,100660.82
2023-05-20T01:16:17.061Z,100649.73
2023-05-20T01:17:20.454Z,100648.61
2023-05-20T01:18:23.408Z,100646.60
2023-05-20T01:20:42.228Z,100648.89
2023-05-20T01:21:44.926Z,100644.29
2023-05-20T01:22:49.303Z,100641.28
2023-05-20T01:23:51.512Z,100644.16
2023-05-20T01:24:53.932Z,100649.38
2023-05-20T01:25:56.217Z,100643.81
2023-05-20T01:26:58.720Z,100649.75
2023-05-20T01:28:00.892Z,100640.37
2023-05-20T01:29:06.032Z,100643.57
2023-05-20T01:30:10.697Z,100643.44
2023-05-20T01:32:37.873Z,100640.13
2023-05-20T01:33:42.944Z,100648.76
2023-05-20T01:35:59.299Z,100642.41
2023-05-20T01:37:03.601Z,100655.14
2023-05-20T01:38:06.637Z,100655.00
2023-05-20T01:39:10.872Z,100652.98
2023-05-20T01:40:15.548Z,100643.87
2023-05-20T01:41:18.090Z,100645.59
2023-05-20T01:42:21.345Z,100651.14
2023-05-20T01:43:25.738Z,100648.14
2023-05-20T01:44:28.223Z,100648.14
2023-05-20T01:45:31.330Z,100641.05
2023-05-20T01:46:35.981Z,100648.83
2023-05-20T01:47:38.464Z,100651.35
2023-05-20T01:48:40.685Z,100648.66
2023-05-20T01:49:44.195Z,100654.90
2023-05-20T01:50:47.156Z,100654.52
2023-05-20T01:51:49.433Z,100659.23
2023-05-20T01:52:51.750Z,100652.98
2023-05-20T01:53:53.744Z,100652.98
2023-05-20T01:54:56.064Z,100652.82
2023-05-20T01:55:58.355Z,100657.05
2023-05-20T01:57:01.383Z,100658.58
2023-05-20T01:58:04.335Z,100657.42
2023-05-20T01:59:06.814Z,100646.50
2023-05-20T02:00:11.693Z,100652.58
2023-05-20T02:01:16.823Z,100659.67
2023-05-20T02:02:19.460Z,100655.81
2023-05-20T02:03:22.360Z,100656.36
2023-05-20T02:04:24.803Z,100652.64
2023-05-20T02:05:27.446Z,100655.88
2023-05-20T02:06:30.095Z,100658.41
2023-05-20T02:07:32.398Z,100649.33
2023-05-20T02:08:34.718Z,100652.88
2023-05-20T02:09:37.534Z,100654.55
2023-05-20T02:10:39.905Z,100655.56
2023-05-20T02:11:42.235Z,100653.73
2023-05-20T02:12:44.524Z,100657.41
2023-05-20T02:13:47.407Z,100658.41
2023-05-20T02:14:50.071Z,100654.03
2023-05-20T02:15:53.213Z,100665.81
2023-05-20T02:16:55.744Z,100663.12
2023-05-20T02:17:59.422Z,100663.28
2023-05-20T02:19:01.885Z,100658.52
2023-05-20T02:20:06.255Z,100664.21
2023-05-20T02:21:09.529Z,100670.59
2023-05-20T02:22:14.061Z,100673.46
2023-05-20T02:23:16.196Z,100664.31
2023-05-20T02:24:19.640Z,100667.63
2023-05-20T02:25:23.376Z,100666.09
2023-05-20T02:26:25.503Z,100669.94
2023-05-20T02:27:27.766Z,100668.54
2023-05-20T02:28:29.961Z,100669.02
2023-05-20T02:29:32.216Z,100673.27
2023-05-20T02:30:34.357Z,100673.58
2023-05-20T02:31:37.697Z,100676.73
2023-05-20T02:32:40.024Z,100674.52
2023-05-20T02:33:43.170Z,100668.57
2023-05-20T02:34:45.672Z,100671.56
2023-05-20T02:35:48.022Z,100668.88
2023-05-20T02:36:50.229Z,100662.50
2023-05-20T02:37:52.590Z,100679.34
2023-05-20T02:38:54.871Z,100675.50
2023-05-20T02:39:57.090Z,100667.97
2023-05-20T02:40:59.823Z,100668.66
2023-05-20T02:42:02.155Z,100673.05
2023-05-20T02:43:05.016Z,100675.88
2023-05-20T02:44:09.134Z,100674.21
2023-05-20T02:45:12.546Z,100677.89
2023-05-20T02:46:16.057Z,100681.27
2023-05-20T02:47:19.046Z,100681.44
2023-05-20T02:48:22.266Z,100678.19
2023-05-20T02:49:24.655Z,100676.82
2023-05-20T02:50:27.528Z,100683.19
2023-05-20T02:51:29.833Z,100674.13
2023-05-20T02:52:31.945Z,100678.11
2023-05-20T02:53:34.223Z,100681.10
2023-05-20T02:54:36.524Z,100680.11
2023-05-20T02:55:40.303Z,100680.66
2023-05-20T02:56:42.523Z,100680.33
2023-05-20T02:57:45.847Z,100680.75
2023-05-20T02:58:50.082Z,100680.03
2023-05-20T02:59:52.685Z,100691.96
2023-05-20T03:00:56.626Z,100677.64
2023-05-20T03:01:59.397Z,100682.04
2023-05-20T03:03:02.068Z,100694.36
2023-05-20T03:04:04.534Z,100689.27
2023-05-20T03:05:07.386Z,100685.59
2023-05-20T03:06:11.140Z,100683.45
2023-05-20T03:07:13.384Z,100683.97
2023-05-20T03:08:15.682Z,100685.20
2023-05-20T03:09:17.985Z,100691.99
2023-05-20T03:10:20.288Z,100692.41
2023-05-20T03:11:22.628Z,100690.41
2023-05-20T03:12:25.077Z,100692.80
2023-05-20T03:13:28.200Z,100689.80
2023-05-20T03:14:30.593Z,100691.63
2023-05-20T03:15:33.164Z,100692.11
2023-05-20T03:16:36.204Z,100691.86
2023-05-20T03:17:38.709Z,100696.53
2023-05-20T03:18:41.130Z,100697.52
2023-05-20T03:19:43.418Z,100690.97
2023-05-20T03:20:46.579Z,100700.49
2023-05-20T03:21:48.888Z,100692.80
2023-05-20T03:22:51.221Z,100696.89
2023-05-20T03:23:53.804Z,100695.56
2023-05-20T03:24:56.448Z,100700.65
2023-05-20T03:25:58.738Z,100701.03
2023-05-20T03:27:01.092Z,100705.43
2023-05-20T03:28:03.394Z,100701.72
2023-05-20T03:29:06.420Z,100706.97
2023-05-20T03:30:10.938Z,100703.97
2023-05-20T03:31:13.429Z,100705.95
2023-05-20T03:32:15.993Z,100706.28
2023-05-20T03:33:18.751Z,100706.59
2023-05-20T03:34:21.234Z,100709.42
2023-05-20T03:35:25.217Z,100709.42
2023-05-20T03:36:28.268Z,100708.91
2023-05-20T03:37:30.603Z,100703.27
2023-05-20T03:38:32.829Z,100704.73
2023-05-20T03:39:35.354Z,100699.94
2023-05-20T03:40:38.925Z,100708.46
2023-05-20T03:41:41.537Z,100702.69
2023-05-20T03:42:45.548Z,100701.45
2023-05-20T03:43:48.240Z,100701.88
2023-05-20T03:44:51.680Z,100702.64
2023-05-20T03:45:54.162Z,100696.87
2023-05-20T03:46:57.946Z,100697.33
2023-05-20T03:48:00.641Z,100705.55
2023-05-20T03:49:04.717Z,100706.69
2023-05-20T03:50:09.060Z,100704.00
2023-05-20T03:51:11.490Z,100702.16
2023-05-20T03:52:14.229Z,100705.02
2023-05-20T03:53:16.899Z,100706.86
2023-05-20T03:54:19.634Z,100710.41
2023-05-20T03:55:23.965Z,100705.70
2023-05-20T03:56:26.281Z,100706.56
2023-05-20T03:57:28.618Z,100701.70
2023-05-20T03:58:30.852Z,100707.64
2023-05-20T03:59:33.109Z,100711.74
2023-05-20T04:00:35.559Z,100708.89
2023-05-20T04:02:50.248Z,100717.74
2023-05-20T04:03:53.870Z,100719.83
2023-05-20T04:04:56.707Z,100719.49
2023-05-20T04:05:59.166Z,100722.74
2023-05-20T04:07:01.845Z,100723.00
2023-05-20T04:08:05.131Z,100721.08
2023-05-20T04:09:07.339Z,100723.59
2023-05-20T04:10:11.648Z,100723.37
2023-05-20T04:11:16.307Z,100720.14
2023-05-20T04:12:18.628Z,100723.12
2023-05-20T04:13:21.256Z,100727.11
2023-05-20T04:14:23.852Z,100725.19
2023-05-20T04:15:26.492Z,100725.70
2023-05-20T04:16:30.682Z,100726.55
2023-05-20T04:17:33.126Z,100720.53
2023-05-20T04:18:35.647Z,100728.58
2023-05-20T04:19:38.078Z,100724.55
2023-05-20T04:20:41.688Z,100721.84
2023-05-20T04:21:45.608Z,100724.31
2023-05-20T04:22:47.945Z,100727.77
2023-05-20T04:23:50.651Z,100719.63
2023-05-20T04:24:53.366Z,100724.34
2023-05-20T04:25:57.095Z,100732.05
2023-05-20T04:26:59.482Z,100728.81
2023-05-20T04:28:03.852Z,100726.28
2023-05-20T04:29:07.705Z,100722.05
2023-05-20T04:30:14.144Z,100720.48
2023-05-20T04:31:16.732Z,100724.34
2023-05-20T04:32:19.320Z,100733.08
2023-05-20T04:33:23.551Z,100729.84
2023-05-20T04:34:30.426Z,100730.31
2023-05-20T04:35:33.068Z,100726.90
2023-05-20T04:36:37.719Z,100740.85
2023-05-20T04:37:40.284Z,100728.84
2023-05-20T04:38:42.574Z,100737.23
2023-05-20T04:39:44.771Z,100739.23
2023-05-20T04:40:48.949Z,100737.83
2023-05-20T04:41:51.876Z,100729.36
2023-05-20T04:42:55.273Z,100736.20
2023-05-20T04:43:57.725Z,100743.61
2023-05-20T04:45:00.169Z,100753.70
2023-05-20T04:46:03.185Z,100742.16
2023-05-20T04:47:06.040Z,100752.84
2023-05-20T04:48:08.511Z,100746.30
2023-05-20T04:49:11.684Z,100748.39
2023-05-20T04:50:14.423Z,100742.53
2023-05-20T04:51:16.776Z,100746.64
2023-05-20T04:52:19.167Z,100735.00
2023-05-20T04:53:22.572Z,100740.39
2023-05-20T04:54:24.814Z,100747.62
2023-05-20T04:55:27.173Z,100738.69
2023-05-20T04:56:29.845Z,100735.69
2023-05-20T04:57:32.606Z,100733.67
2023-05-20T04:58:35.263Z,100743.00
2023-05-20T04:59:37.560Z,100742.86
2023-05-20T05:00:40.636Z,100744.53
2023-05-20T05:01:44.154Z,100738.46
2023-05-20T05:02:46.913Z,100743.47
2023-05-20T05:03:49.459Z,100736.84
2023-05-20T05:04:51.686Z,100738.00
2023-05-20T05:05:58.004Z,100732.74
2023-05-20T05:07:01.447Z,100734.28
2023-05-20T05:08:04.962Z,100743.09
2023-05-20T05:09:07.483Z,100727.77
2023-05-20T05:10:13.022Z,100732.00
2023-05-20T05:11:15.735Z,100734.23
2023-05-20T05:12:18.464Z,100727.06
2023-05-20T05:13:20.902Z,100724.34
2023-05-20T05:14:23.872Z,100721.16
2023-05-20T05:15:33.465Z,100724.91
2023-05-20T05:16:37.907Z,100728.46
2023-05-20T05:17:40.266Z,100719.13
2023-05-20T05:18:43.217Z,100725.18
2023-05-20T05:19:46.156Z,100724.59
2023-05-20T05:20:48.864Z,100721.25
2023-05-20T05:21:52.353Z,100711.31
2023-05-20T05:22:54.696Z,100724.16
2023-05-20T05:23:58.465Z,100724.78
2023-05-20T05:25:01.549Z,100729.85
2023-05-20T05:26:04.513Z,100726.94
2023-05-20T05:27:07.819Z,100733.61
2023-05-20T05:28:11.243Z,100733.88
2023-05-20T05:29:14.432Z,100731.22
2023-05-20T05:30:17.213Z,100726.48
2023-05-20T05:31:19.738Z,100740.71
2023-05-20T05:32:22.157Z,100737.05
2023-05-20T05:33:24.761Z,100732.59
2023-05-20T05:34:27.555Z,100727.56
2023-05-20T05:35:30.342Z,100731.14
2023-05-20T05:36:33.560Z,100731.53
2023-05-20T05:37:37.001Z,100738.17
2023-05-20T05:38:40.080Z,100732.65
2023-05-20T05:39:43.343Z,100734.66
2023-05-20T05:40:46.267Z,100725.86
2023-05-20T05:41:48.543Z,100724.05
2023-05-20T05:42:50.644Z,100737.36
2023-05-20T05:43:55.170Z,100740.81
2023-05-20T05:44:58.110Z,100732.38
2023-05-20T05:46:01.174Z,100735.27
2023-05-20T05:47:05.273Z,100738.35
2023-05-20T05:48:08.746Z,100739.20
2023-05-20T05:49:11.430Z,100736.48
2023-05-20T05:50:15.353Z,100745.12
2023-05-20T05:51:18.590Z,100737.45
2023-05-20T05:52:22.074Z,100743.81
2023-05-20T05:53:25.321Z,100748.95
2023-05-20T05:54:28.384Z,100738.50
2023-05-20T05:55:30.964Z,100737.86
2023-05-20T05:56:33.551Z,100742.41
2023-05-20T05:57:35.626Z,100737.98
2023-05-20T05:58:39.519Z,100740.88
2023-05-20T05:59:41.868Z,100740.68
2023-05-20T06:00:45.109Z,100739.58
2023-05-20T06:01:48.294Z,100733.88
2023-05-20T06:02:51.170Z,100735.48
2023-05-20T06:03:58.454Z,100736.94
2023-05-20T06:05:04.802Z,100741.06
2023-05-20T06:06:07.416Z,100725.83
2023-05-20T06:07:10.175Z,100726.98
2023-05-20T06:08:12.932Z,100728.30
2023-05-20T06:09:16.444Z,100733.22
2023-05-20T06:10:19.367Z,100729.48
2023-05-20T06:11:21.822Z,100729.70
2023-05-20T06:12:24.150Z,100733.22
2023-05-20T06:13:28.141Z,100734.36
2023-05-20T06:14:33.075Z,100728.77
2023-05-20T06:15:35.616Z,100736.33
2023-05-20T06:16:38.472Z,100725.65
2023-05-20T06:17:42.566Z,100731.29
2023-05-20T06:18:48.507Z,100744.80
2023-05-20T06:19:51.344Z,100738.39
2023-05-20T06:20:55.760Z,100736.62
2023-05-20T06:21:57.931Z,100733.06
2023-05-20T06:23:00.044Z,100737.06
2023-05-20T06:24:05.417Z,100732.09
2023-05-20T06:25:10.199Z,100728.61
2023-05-20T06:26:12.745Z,100730.77
2023-05-20T06:27:14.941Z,100727.66
2023-05-20T06:28:17.562Z,100725.22
2023-05-20T06:29:19.912Z,100731.54
2023-05-20T06:30:22.359Z,100729.39
2023-05-20T06:31:24.743Z,100733.84
2023-05-20T06:32:27.869Z,100733.91
2023-05-20T06:33:31.955Z,100734.20
2023-05-20T06:34:36.131Z,100740.70
2023-05-20T06:35:38.413Z,100747.69
2023-05-20T06:36:40.677Z,100738.24
2023-05-20T06:37:44.928Z,100746.48
2023-05-20T06:38:47.665Z,100742.13
2023-05-20T06:39:52.494Z,100740.16
2023-05-20T06:40:55.977Z,100738.87
2023-05-20T06:41:58.299Z,100741.14
2023-05-20T06:43:02.621Z,100742.37
2023-05-20T06:45:29.176Z,100738.48
2023-05-20T06:46:35.280Z,100737.64
2023-05-20T06:47:39.462Z,100722.59
2023-05-20T06:48:43.619Z,100733.95
2023-05-20T06:49:47.517Z,100734.11
2023-05-20T06:50:52.144Z,100737.36
2023-05-20T06:51:55.429Z,100729.40
2023-05-20T06:52:58.172Z,100735.48
2023-05-20T06:54:00.587Z,100734.30
2023-05-20T06:55:04.644Z,100736.66
2023-05-20T06:56:08.258Z,100730.42
2023-05-20T06:57:10.543Z,100730.57
2023-05-20T06:58:12.885Z,100730.90
2023-05-20T06:59:15.168Z,100737.15
2023-05-20T07:00:19.204Z,100727.16
2023-05-20T07:01:22.872Z,100723.08
2023-05-20T07:02:25.608Z,100735.25
2023-05-20T07:03:29.906Z,100726.59
2023-05-20T07:04:33.514Z,100731.25
2023-05-20T07:05:36.068Z,100731.37
2023-05-20T07:06:40.056Z,100730.78
2023-05-20T07:07:42.439Z,100735.69
2023-05-20T07:08:44.965Z,100737.99
2023-05-20T07:09:49.720Z,100725.88
2023-05-20T07:10:52.908Z,100729.20
2023-05-20T07:11:57.592Z,100731.69
2023-05-20T07:13:00.554Z,100733.65
2023-05-20T07:14:03.020Z,100736.49
2023-05-20T07:15:07.856Z,100744.57
2023-05-20T07:16:11.048Z,100730.93
2023-05-20T07:17:15.757Z,100732.09
2023-05-20T07:18:19.838Z,100727.32
2023-05-20T07:19:24.192Z,100737.66
2023-05-20T07:20:27.362Z,100736.93
2023-05-20T07:21:31.737Z,100738.06
2023-05-20T07:22:39.748Z,100734.58
2023-05-20T07:23:43.952Z,100735.55
2023-05-20T07:24:46.239Z,100735.47
2023-05-20T07:25:49.623Z,100733.03
2023-05-20T07:26:52.091Z,100722.64
2023-05-20T07:27:54.515Z,100729.75
2023-05-20T07:28:57.753Z,100729.58
2023-05-20T07:30:00.203Z,100741.95
2023-05-20T07:31:03.580Z,100725.44
2023-05-20T07:32:08.862Z,100730.50
2023-05-20T07:33:13.165Z,100733.87
2023-05-20T07:34:15.795Z,100736.59
2023-05-20T07:35:19.224Z,100733.87
2023-05-20T07:36:22.098Z,100736.79
2023-05-20T07:37:26.705Z,100732.20
2023-05-20T07:38:29.400Z,100740.35
2023-05-20T07:39:33.499Z,100728.74
2023-05-20T07:40:37.003Z,100734.66
2023-05-20T07:41:46.542Z,100745.36
2023-05-20T07:42:52.981Z,100736.83
2023-05-20T07:43:56.808Z,100733.06
2023-05-20T07:45:02.531Z,100741.05
2023-05-20T07:46:05.832Z,100731.67
2023-05-20T07:47:08.476Z,100728.75
2023-05-20T07:48:10.888Z,100733.81
2023-05-20T07:49:14.311Z,100734.45
2023-05-20T07:50:16.896Z,100731.19
2023-05-20T07:51:19.284Z,100736.91
2023-05-20T07:52:21.712Z,100728.16
2023-05-20T07:53:25.945Z,100732.00
2023-05-20T07:54:28.657Z,100732.95
2023-05-20T07:56:43.535Z,100726.81
2023-05-20T07:57:47.396Z,100725.84
2023-05-20T08:00:15.478Z,100722.73
2023-05-20T08:01:25.587Z,100714.61
2023-05-20T08:02:29.635Z,100724.17
2023-05-20T08:03:33.644Z,100722.86
2023-05-20T08:04:41.741Z,100725.95
2023-05-20T08:06:58.944Z,100720.31
2023-05-20T08:08:07.382Z,100722.86
2023-05-20T08:09:13.223Z,100716.39
2023-05-20T08:10:22.701Z,100723.50
2023-05-20T08:11:25.328Z,100734.85
2023-05-20T08:12:27.704Z,100718.36
2023-05-20T08:13:30.126Z,100712.91
2023-05-20T08:14:32.955Z,100710.87
2023-05-20T08:15:37.131Z,100719.03
2023-05-20T08:16:42.709Z,100714.31
2023-05-20T08:17:45.134Z,100716.95
2023-05-20T08:18:47.686Z,100724.47
2023-05-20T08:19:49.954Z,100729.06
2023-05-20T08:20:52.436Z,100728.20
2023-05-20T08:21:56.762Z,100723.62
2023-05-20T08:23:02.450Z,100726.55
2023-05-20T08:24:06.391Z,100734.06
2023-05-20T08:25:10.777Z,100718.94
2023-05-20T08:26:13.649Z,100730.49
2023-05-20T08:27:17.375Z,100717.16
2023-05-20T08:28:20.980Z,100724.35
2023-05-20T08:29:24.786Z,100722.39
2023-05-20T08:31:30.547Z,100721.04
2023-05-20T08:32:32.952Z,100716.23
2023-05-20T08:33:35.270Z,100709.56
2023-05-20T08:34:37.569Z,100712.95
2023-05-20T08:35:42.757Z,100714.23
2023-05-20T08:36:45.645Z,100725.37
2023-05-20T08:37:48.197Z,100722.48
2023-05-20T08:38:53.275Z,100713.93
2023-05-20T08:39:55.944Z,100718.78
2023-05-20T08:40:58.682Z,100715.84
2023-05-20T08:42:01.730Z,100720.09
2023-05-20T08:43:04.579Z,100709.45
2023-05-20T08:44:07.945Z,100710.09
2023-05-20T08:45:11.844Z,100704.64
2023-05-20T08:46:18.198Z,100725.58
2023-05-20T08:47:26.548Z,100712.59
2023-05-20T08:48:31.856Z,100710.34
2023-05-20T08:49:38.378Z,100716.03
2023-05-20T08:50:41.236Z,100709.17
2023-05-20T08:51:46.171Z,100700.64
2023-05-20T08:52:49.808Z,100696.86
2023-05-20T08:53:53.013Z,100720.12
2023-05-20T08:54:56.697Z,100700.67
2023-05-20T08:56:04.026Z,100717.02
2023-05-20T08:57:06.471Z,100707.36
2023-05-20T08:58:15.493Z,100712.73
2023-05-20T08:59:19.566Z,100722.15
2023-05-20T09:00:24.196Z,100709.73
2023-05-20T09:01:27.922Z,100710.20
2023-05-20T09:02:31.024Z,100705.39
2023-05-20T09:03:37.241Z,100709.45
2023-05-20T09:04:45.880Z,100703.36
2023-05-20T09:05:48.478Z,100707.11
2023-05-20T09:06:50.858Z,100714.26
2023-05-20T09:07:53.759Z,100699.40
2023-05-20T09:09:00.046Z,100699.83
2023-05-20T09:10:03.621Z,100697.55
2023-05-20T09:11:09.992Z,100699.70
2023-05-20T09:12:15.251Z,100707.45
2023-05-20T09:13:17.490Z,100710.39
2023-05-20T09:14:19.932Z,100714.54
2023-05-20T09:15:22.691Z,100723.31
2023-05-20T09:16:25.312Z,100716.13
2023-05-20T09:17:27.849Z,100724.59
2023-05-20T09:18:30.461Z,100723.70
2023-05-20T09:19:32.908Z,100709.59
2023-05-20T09:20:37.082Z,100713.08
2023-05-20T09:21:41.429Z,100715.16
2023-05-20T09:22:43.806Z,100713.93
2023-05-20T09:23:49.410Z,100712.48
2023-05-20T09:24:52.014Z,100716.31
2023-05-20T09:25:54.833Z,100711.11
2023-05-20T09:26:57.696Z,100713.45
2023-05-20T09:28:00.135Z,100715.92
2023-05-20T09:29:06.943Z,100720.27
2023-05-20T09:30:11.764Z,100721.89
2023-05-20T09:31:16.429Z,100711.38
2023-05-20T09:32:22.870Z,100719.12
2023-05-20T09:33:30.004Z,100715.09
2023-05-20T09:34:32.436Z,100718.02
2023-05-20T09:35:35.781Z,100711.05
2023-05-20T09:36:39.564Z,100719.81
2023-05-20T09:37:46.592Z,100707.64
2023-05-20T09:38:51.551Z,100716.19
2023-05-20T09:40:08.397Z,100713.64
2023-05-20T09:41:14.601Z,100716.57
2023-05-20T09:42:32.706Z,100714.02
2023-05-20T09:43:36.089Z,100719.67
2023-05-20T09:44:38.424Z,100698.28
2023-05-20T09:45:40.965Z,100710.95
2023-05-20T09:46:45.621Z,100704.02
2023-05-20T09:47:50.467Z,100704.41
2023-05-20T09:48:57.288Z,100718.38
2023-05-20T09:50:02.165Z,100715.58
2023-05-20T09:51:05.840Z,100709.02
2023-05-20T09:52:08.245Z,100709.22
2023-05-20T09:53:11.346Z,100697.12
2023-05-20T09:54:15.293Z,100700.10
2023-05-20T09:55:20.368Z,100715.02
2023-05-20T09:56:25.680Z,100702.91
2023-05-20T09:58:44.471Z,100710.48
2023-05-20T09:59:50.523Z,100696.50
2023-05-20T10:00:56.505Z,100706.75
2023-05-20T10:01:59.938Z,100699.78
2023-05-20T10:03:02.500Z,100708.99
2023-05-20T10:04:07.080Z,100711.72
2023-05-20T10:06:35.364Z,100714.31
2023-05-20T10:08:04.105Z,100706.86
2023-05-20T10:09:16.714Z,100699.34
2023-05-20T10:10:31.544Z,100706.92
2023-05-20T10:11:40.365Z,100693.78
2023-05-20T10:14:30.976Z,100691.70
2023-05-20T10:15:42.870Z,100706.06
2023-05-20T10:16:54.134Z,100705.86
2023-05-20T10:18:00.132Z,100697.44
2023-05-20T10:19:12.314Z,100697.61
2023-05-20T10:20:16.062Z,100683.83
2023-05-20T10:21:22.157Z,100694.16
2023-05-20T10:22:29.363Z,100683.27
2023-05-20T10:23:32.963Z,100696.59
2023-05-20T10:24:41.879Z,100692.94
2023-05-20T10:25:47.729Z,100696.36
2023-05-20T10:26:53.983Z,100699.37
2023-05-20T10:28:10.423Z,100699.58
2023-05-20T10:29:17.194Z,100695.16
2023-05-20T10:30:21.461Z,100702.30
2023-05-20T10:31:23.830Z,100687.84
2023-05-20T10:33:46.299Z,100683.78
2023-05-20T10:34:50.239Z,100692.64
2023-05-20T10:35:53.833Z,100691.15
2023-05-20T10:36:58.382Z,100695.17
2023-05-20T10:38:11.667Z,100695.75
2023-05-20T10:39:16.554Z,100688.82
2023-05-20T10:40:20.840Z,100684.41
2023-05-20T10:41:27.813Z,100683.38
2023-05-20T10:42:30.195Z,100680.66
2023-05-20T10:43:32.463Z,100693.03
2023-05-20T10:44:47.409Z,100686.95
2023-05-20T10:45:57.305Z,100687.97
2023-05-20T10:47:21.076Z,100693.78
2023-05-20T10:48:07.318Z,100696.70
2023-05-20T10:49:20.980Z,100696.23
2023-05-20T10:51:39.686Z,100687.59
2023-05-20T10:52:42.984Z,100682.70
2023-05-20T10:53:47.141Z,100683.75
2023-05-20T10:56:17.732Z,100680.73
2023-05-20T10:57:20.823Z,100674.75
2023-05-20T10:58:24.415Z,100678.80
2023-05-20T10:59:26.865Z,100680.94
2023-05-20T11:00:29.538Z,100678.87
2023-05-20T11:01:32.338Z,100679.89
2023-05-20T11:03:57.640Z,100682.37
2023-05-20T11:05:01.123Z,100683.18
2023-05-20T11:06:15.361Z,100690.04
2023-05-20T11:07:28.926Z,100692.92
2023-05-20T11:08:31.303Z,100689.08
2023-05-20T11:09:33.836Z,100686.94
2023-05-20T11:10:37.350Z,100681.02
2023-05-20T11:11:40.893Z,100677.66
2023-05-20T11:13:57.884Z,100677.94
2023-05-20T11:15:00.916Z,100681.77
2023-05-20T11:16:06.094Z,100686.38
2023-05-20T11:17:08.649Z,100688.89
2023-05-20T11:18:12.467Z,100684.48
2023-05-20T11:19:15.589Z,100682.61
2023-05-20T11:20:19.118Z,100672.59
2023-05-20T11:21:21.420Z,100688.05
2023-05-20T11:22:24.237Z,100679.25
2023-05-20T11:23:27.792Z,100679.05
2023-05-20T11:24:29.870Z,100673.45
2023-05-20T11:25:32.743Z,100670.16
2023-05-20T11:26:36.722Z,100677.94
2023-05-20T11:27:40.607Z,100679.27
2023-05-20T11:28:43.225Z,100669.05
2023-05-20T11:29:51.860Z,100679.71
2023-05-20T11:30:55.436Z,100683.28
2023-05-20T11:31:59.276Z,100689.73
2023-05-20T11:33:03.465Z,100688.23
2023-05-20T11:34:08.562Z,100686.56
2023-05-20T11:35:22.325Z,100691.15
2023-05-20T11:36:27.854Z,100689.45
2023-05-20T11:37:29.805Z,100689.82
2023-05-20T11:38:32.078Z,100678.14
2023-05-20T11:39:35.415Z,100677.09
2023-05-20T11:42:00.158Z,100686.47
2023-05-20T11:43:03.070Z,100684.22
2023-05-20T11:44:10.331Z,100680.45
2023-05-20T11:45:13.605Z,100681.30
2023-05-20T11:46:18.362Z,100683.84
2023-05-20T11:47:25.447Z,100675.33
2023-05-20T11:48:28.027Z,100674.11
2023-05-20T11:49:31.631Z,100680.39
2023-05-20T11:50:37.371Z,100668.09
2023-05-20T11:51:40.132Z,100678.31
2023-05-20T11:52:42.415Z,100666.60
2023-05-20T11:53:46.644Z,100669.52
2023-05-20T11:54:52.634Z,100669.69
2023-05-20T11:55:57.385Z,100670.34
2023-05-20T11:57:01.875Z,100672.89
2023-05-20T11:58:04.226Z,100666.60
2023-05-20T11:59:08.814Z,100670.81
2023-05-20T12:00:12.904Z,100664.16
2023-05-20T12:01:22.457Z,100675.03
2023-05-20T12:02:19.787Z,100663.14
2023-05-20T12:04:35.722Z,100662.39
2023-05-20T12:05:39.380Z,100675.60
2023-05-20T12:06:42.197Z,100659.47
2023-05-20T12:07:45.017Z,100667.83
2023-05-20T12:08:48.714Z,100658.66
2023-05-20T12:09:51.073Z,100667.83
2023-05-20T12:10:55.313Z,100659.84
2023-05-20T12:11:58.209Z,100661.74
2023-05-20T12:13:00.879Z,100660.69
2023-05-20T12:14:03.583Z,100664.45
2023-05-20T12:15:11.217Z,100648.98
2023-05-20T12:16:14.292Z,100650.67
2023-05-20T12:17:16.579Z,100664.09
2023-05-20T12:18:19.779Z,100652.54
2023-05-20T12:19:22.126Z,100658.17
2023-05-20T12:20:25.466Z,100646.46
2023-05-20T12:21:29.065Z,100654.41
2023-05-20T12:23:47.608Z,100653.49
2023-05-20T12:24:50.112Z,100651.41
2023-05-20T12:25:55.755Z,100649.08
2023-05-20T12:26:57.964Z,100655.36
2023-05-20T12:28:01.875Z,100649.75
2023-05-20T12:29:05.311Z,100657.05
2023-05-20T12:30:09.440Z,100647.85
2023-05-20T12:31:13.950Z,100648.53
2023-05-20T12:32:16.397Z,100645.44
2023-05-20T12:33:18.534Z,100638.78
2023-05-20T12:34:20.664Z,100645.88
2023-05-20T12:35:40.787Z,100642.35
2023-05-20T12:36:43.530Z,100649.08
2023-05-20T12:38:53.788Z,100641.94
2023-05-20T12:39:56.082Z,100638.69
2023-05-20T12:40:58.284Z,100644.77